createdAt,value
2023-05-05T00:00:24.761Z,74.44
2023-05-05T00:02:05.187Z,74.71
2023-05-05T00:03:45.634Z,75.34
2023-05-05T00:05:25.977Z,75.86
2023-05-05T00:07:06.322Z,76.33
2023-05-05T00:08:46.763Z,75.9
2023-05-05T00:10:27.180Z,76.98
2023-05-05T00:12:07.657Z,76.8
2023-05-05T00:13:48.054Z,77.85
2023-05-05T00:15:28.387Z,77.88
2023-05-05T00:17:08.841Z,78.42
2023-05-05T00:18:49.201Z,78.98
2023-05-05T00:20:29.598Z,79.22
2023-05-05T00:22:10.021Z,79.44
2023-05-05T00:23:50.432Z,80.06
2023-05-05T00:25:30.786Z,79.82
2023-05-05T00:27:11.160Z,80.25
2023-05-05T00:28:51.563Z,80.52
2023-05-05T00:30:31.853Z,81.25
2023-05-05T00:32:12.222Z,80.86
2023-05-05T00:33:52.567Z,81.06
2023-05-05T00:35:32.895Z,82.08
2023-05-05T00:37:13.209Z,82.52
2023-05-05T00:38:53.510Z,82.91
2023-05-05T00:40:33.835Z,83.28
2023-05-05T00:42:14.178Z,83.53
2023-05-05T00:43:54.514Z,83.73
2023-05-05T00:45:34.858Z,84.29
2023-05-05T00:47:15.148Z,84.27
2023-05-05T00:48:55.516Z,84.23
2023-05-05T00:50:35.860Z,84.51
2023-05-05T00:52:16.253Z,84.73
2023-05-05T00:53:56.720Z,85.22
2023-05-05T00:55:37.087Z,85.52
2023-05-05T00:57:17.533Z,85.71
2023-05-05T00:58:57.945Z,85.47
2023-05-05T01:00:38.307Z,85.96
2023-05-05T01:02:18.792Z,86.12
2023-05-05T01:03:59.291Z,86.26
2023-05-05T01:05:39.552Z,86.02
2023-05-05T01:07:19.908Z,86.43
2023-05-05T01:09:00.389Z,86.92
2023-05-05T01:10:40.750Z,87.1
2023-05-05T01:12:21.226Z,87.12
2023-05-05T01:14:01.651Z,87.32
2023-05-05T01:15:42.125Z,87.22
2023-05-05T01:17:22.589Z,87.59
2023-05-05T01:19:03.020Z,87.69
2023-05-05T01:20:43.367Z,88.13
2023-05-05T01:22:23.850Z,88.16
2023-05-05T01:24:04.132Z,88
2023-05-05T01:25:44.628Z,88.26
2023-05-05T01:27:25.045Z,88.16
2023-05-05T01:29:05.493Z,88.07
2023-05-05T01:30:45.908Z,88.67
2023-05-05T01:32:26.392Z,88.61
2023-05-05T01:34:06.636Z,88.83
2023-05-05T01:35:46.989Z,88.57
2023-05-05T01:37:27.392Z,88.67
2023-05-05T01:39:07.776Z,88.69
2023-05-05T01:40:48.175Z,88.6
2023-05-05T01:42:28.552Z,88.65
2023-05-05T01:44:09.021Z,88.69
2023-05-05T01:45:49.580Z,88.65
2023-05-05T01:47:29.938Z,88.96
2023-05-05T01:49:10.327Z,88.99
2023-05-05T01:50:50.740Z,88.87
2023-05-05T01:52:31.085Z,88.91
2023-05-05T01:54:11.539Z,89.11
2023-05-05T01:55:51.995Z,88.87
2023-05-05T01:57:32.371Z,88.76
2023-05-05T01:59:12.805Z,88.66
2023-05-05T02:00:53.212Z,88.53
2023-05-05T02:02:33.709Z,88.67
2023-05-05T02:04:14.103Z,88.42
2023-05-05T02:05:54.435Z,88.36
2023-05-05T02:07:34.836Z,88.32
2023-05-05T02:09:15.304Z,88.62
2023-05-05T02:10:55.719Z,88.85
2023-05-05T02:12:36.085Z,88.57
2023-05-05T02:14:16.477Z,88.59
2023-05-05T02:15:56.878Z,88.43
2023-05-05T02:17:37.159Z,88.33
2023-05-05T02:19:17.504Z,88.41
2023-05-05T02:20:57.986Z,88.15
2023-05-05T02:22:38.346Z,88.08
2023-05-05T02:24:18.722Z,87.78
2023-05-05T02:25:59.006Z,87.63
2023-05-05T02:27:39.351Z,87.46
2023-05-05T02:29:19.749Z,87.22
2023-05-05T02:31:00.128Z,86.77
2023-05-05T02:32:40.458Z,85.61
2023-05-05T02:34:20.919Z,84.71
2023-05-05T02:36:01.351Z,85.24
2023-05-05T02:37:41.815Z,85.01
2023-05-05T02:39:22.236Z,84.4
2023-05-05T02:41:02.664Z,84.55
2023-05-05T02:42:43.100Z,83.4
2023-05-05T02:44:23.486Z,83.86
2023-05-05T02:46:03.979Z,82.94
2023-05-05T02:47:44.360Z,82.31
2023-05-05T02:49:24.718Z,81.42
2023-05-05T02:51:05.160Z,80.76
2023-05-05T02:52:45.524Z,79.26
2023-05-05T02:54:25.962Z,78.54
2023-05-05T02:56:06.405Z,78.12
2023-05-05T02:57:46.819Z,78.24
2023-05-05T02:59:27.224Z,77.57
2023-05-05T03:01:07.748Z,77.7
2023-05-05T03:02:48.069Z,77.58
2023-05-05T03:04:28.415Z,77.12
2023-05-05T03:06:08.848Z,76.71
2023-05-05T03:07:49.317Z,76.09
2023-05-05T03:09:29.767Z,75.93
2023-05-05T03:11:10.196Z,75.84
2023-05-05T03:12:50.569Z,76.1
2023-05-05T03:14:32.827Z,76.16
2023-05-05T03:16:11.248Z,76.32
2023-05-05T03:17:51.658Z,77.69
2023-05-05T03:19:32.141Z,78.36
2023-05-05T03:21:12.458Z,78.69
2023-05-05T03:22:52.970Z,78.71
2023-05-05T03:24:33.391Z,78.93
2023-05-05T03:26:13.840Z,78.38
2023-05-05T03:27:54.222Z,77.89
2023-05-05T03:29:34.703Z,77.55
2023-05-05T03:31:14.972Z,77.71
2023-05-05T03:32:55.512Z,77.5
2023-05-05T03:34:35.788Z,77.33
2023-05-05T03:36:16.258Z,77.06
2023-05-05T03:37:56.729Z,76.98
2023-05-05T03:39:37.071Z,76.58
2023-05-05T03:41:17.417Z,76.2
2023-05-05T03:42:57.901Z,75.9
2023-05-05T03:44:38.350Z,75.83
2023-05-05T03:46:18.898Z,75.23
2023-05-05T03:47:59.260Z,75.13
2023-05-05T03:49:39.583Z,75.35
2023-05-05T03:51:20.060Z,75.51
2023-05-05T03:53:00.496Z,75.38
2023-05-05T03:54:40.975Z,75.8
2023-05-05T03:56:21.360Z,76.38
2023-05-05T03:58:01.839Z,76.53
2023-05-05T03:59:42.281Z,76.94
2023-05-05T04:01:22.742Z,77.1
2023-05-05T04:03:03.151Z,77.1
2023-05-05T04:04:43.438Z,77
2023-05-05T04:06:23.755Z,76.58
2023-05-05T04:08:04.261Z,76.33
2023-05-05T04:09:44.664Z,76.53
2023-05-05T04:11:25.155Z,76.14
2023-05-05T04:13:05.635Z,75.93
2023-05-05T04:14:46.077Z,75.55
2023-05-05T04:16:26.563Z,75.27
2023-05-05T04:18:06.829Z,75.44
2023-05-05T04:19:47.230Z,75.58
2023-05-05T04:21:27.686Z,75.29
2023-05-05T04:23:08.115Z,75.39
2023-05-05T04:24:48.529Z,75.36
2023-05-05T04:26:28.951Z,75.22
2023-05-05T04:28:09.324Z,76.51
2023-05-05T04:29:49.763Z,76.49
2023-05-05T04:31:30.154Z,76.46
2023-05-05T04:33:10.555Z,76.86
2023-05-05T04:34:50.952Z,76.77
2023-05-05T04:36:31.413Z,76.37
2023-05-05T04:38:11.838Z,75.95
2023-05-05T04:39:52.186Z,75.85
2023-05-05T04:41:32.623Z,75.44
2023-05-05T04:43:12.980Z,75.28
2023-05-05T04:44:53.380Z,75.2
2023-05-05T04:46:33.888Z,75.08
2023-05-05T04:48:14.284Z,74.72
2023-05-05T04:49:54.712Z,74.59
2023-05-05T04:51:35.080Z,74.39
2023-05-05T04:53:15.434Z,74.21
2023-05-05T04:54:55.809Z,73.87
2023-05-05T04:56:36.193Z,74.05
2023-05-05T04:58:16.495Z,73.91
2023-05-05T04:59:56.907Z,73.89
2023-05-05T05:01:38.550Z,73.84
2023-05-05T05:03:17.690Z,74.07
2023-05-05T05:04:58.005Z,73.89
2023-05-05T05:06:38.453Z,73.48
2023-05-05T05:08:18.854Z,73.61
2023-05-05T05:09:59.290Z,73.64
2023-05-05T05:11:39.650Z,73.86
2023-05-05T05:13:20.097Z,74.01
2023-05-05T05:15:00.501Z,74.24
2023-05-05T05:16:40.969Z,74.39
2023-05-05T05:18:21.363Z,74.3
2023-05-05T05:20:01.725Z,74.11
2023-05-05T05:21:42.179Z,74.09
2023-05-05T05:23:22.645Z,73.98
2023-05-05T05:25:03.149Z,73.91
2023-05-05T05:26:43.540Z,73.84
2023-05-05T05:28:23.953Z,73.59
2023-05-05T05:30:04.319Z,73.73
2023-05-05T05:31:44.751Z,73.73
2023-05-05T05:33:25.228Z,73.49
2023-05-05T05:35:05.586Z,73.21
2023-05-05T05:36:46.047Z,73.31
2023-05-05T05:38:26.516Z,72.82
2023-05-05T05:40:07.139Z,72.83
2023-05-05T05:41:47.355Z,72.3
2023-05-05T05:43:27.706Z,71.89
2023-05-05T05:45:08.187Z,71.29
2023-05-05T05:46:48.584Z,71.52
2023-05-05T05:48:28.924Z,70.95
2023-05-05T05:50:09.673Z,70.63
2023-05-05T05:51:49.763Z,69.51
2023-05-05T05:53:30.102Z,69.67
2023-05-05T05:55:10.552Z,69.27
2023-05-05T05:56:50.979Z,68.11
2023-05-05T05:58:31.389Z,67.73
2023-05-05T06:00:11.789Z,67.33
2023-05-05T06:01:52.210Z,66.52
2023-05-05T06:03:32.708Z,66.05
2023-05-05T06:05:13.125Z,65.71
2023-05-05T06:06:53.525Z,65.93
2023-05-05T06:08:34.052Z,65.65
2023-05-05T06:10:26.491Z,65.71
2023-05-05T06:11:54.794Z,64.95
2023-05-05T06:13:35.181Z,64.25
2023-05-05T06:15:15.645Z,64.6
2023-05-05T06:16:56.075Z,64.07
2023-05-05T06:18:36.507Z,64.02
2023-05-05T06:20:16.942Z,63.89
2023-05-05T06:21:57.272Z,63.93
2023-05-05T06:23:37.692Z,62.84
2023-05-05T06:25:18.140Z,63.08
2023-05-05T06:26:58.517Z,62.77
2023-05-05T06:28:38.970Z,61.41
2023-05-05T06:30:19.380Z,61.66
2023-05-05T06:31:59.805Z,60.88
2023-05-05T06:33:40.200Z,60.61
2023-05-05T06:35:20.687Z,60.37
2023-05-05T06:37:01.156Z,59.61
2023-05-05T06:38:41.639Z,58.85
2023-05-05T06:40:21.986Z,59.72
2023-05-05T06:42:02.394Z,58.25
2023-05-05T06:43:42.756Z,58.34
2023-05-05T06:45:23.036Z,58.5
2023-05-05T06:47:03.415Z,56.42
2023-05-05T06:48:43.689Z,55.75
2023-05-05T06:50:24.010Z,55.05
2023-05-05T06:52:04.541Z,55.66
2023-05-05T06:53:44.973Z,56.8
2023-05-05T06:55:25.431Z,54.34
2023-05-05T06:57:05.934Z,54.41
2023-05-05T06:58:46.317Z,52.5
2023-05-05T07:00:26.789Z,52.93
2023-05-05T07:02:07.077Z,52.94
2023-05-05T07:03:47.522Z,52.46
2023-05-05T07:05:27.900Z,51.2
2023-05-05T07:07:08.317Z,51.47
2023-05-05T07:08:48.772Z,51.5
2023-05-05T07:10:29.201Z,52.24
2023-05-05T07:12:09.661Z,50.64
2023-05-05T07:13:50.176Z,51.48
2023-05-05T07:15:30.504Z,51.26
2023-05-05T07:17:10.867Z,49.89
2023-05-05T07:18:51.299Z,50.76
2023-05-05T07:20:31.700Z,50.08
2023-05-05T07:22:12.141Z,50.41
2023-05-05T07:23:52.503Z,50.45
2023-05-05T07:25:32.893Z,48.89
2023-05-05T07:27:13.285Z,50.11
2023-05-05T07:28:53.766Z,50.68
2023-05-05T07:30:34.153Z,49.76
2023-05-05T07:32:14.646Z,49.18
2023-05-05T07:33:55.073Z,49.48
2023-05-05T07:35:35.487Z,49.15
2023-05-05T07:37:15.949Z,49.47
2023-05-05T07:38:56.419Z,47.78
2023-05-05T07:40:36.790Z,49.5
2023-05-05T07:42:17.238Z,48.14
2023-05-05T07:43:57.644Z,48.3
2023-05-05T07:45:38.090Z,48.31
2023-05-05T07:47:18.607Z,50.19
2023-05-05T07:48:58.983Z,48.31
2023-05-05T07:50:39.340Z,49.21
2023-05-05T07:52:25.228Z,47.49
2023-05-05T07:54:00.220Z,49.05
2023-05-05T07:55:40.571Z,49.24
2023-05-05T07:57:20.964Z,48.09
2023-05-05T07:59:01.365Z,48.8
2023-05-05T08:00:41.833Z,49.87
2023-05-05T08:02:22.377Z,48.83
2023-05-05T08:04:02.772Z,50.17
2023-05-05T08:05:43.105Z,50.32
2023-05-05T08:07:23.491Z,49.54
2023-05-05T08:09:03.911Z,50.03
2023-05-05T08:10:44.345Z,52.16
2023-05-05T08:12:24.713Z,52.22
2023-05-05T08:14:05.155Z,52.75
2023-05-05T08:15:45.716Z,52.48
2023-05-05T08:17:26.161Z,53.36
2023-05-05T08:19:17.708Z,53.19
2023-05-05T08:20:46.992Z,54.21
2023-05-05T08:22:27.361Z,54.84
2023-05-05T08:24:07.762Z,55.3
2023-05-05T08:25:48.136Z,56.69
2023-05-05T08:27:28.554Z,54.9
2023-05-05T08:29:08.988Z,56.83
2023-05-05T08:30:49.448Z,56.77
2023-05-05T08:32:30.039Z,57.35
2023-05-05T08:34:10.287Z,57.33
2023-05-05T08:35:50.780Z,56.17
2023-05-05T08:37:31.140Z,56.94
2023-05-05T08:39:11.592Z,56.46
2023-05-05T08:40:52.105Z,56.11
2023-05-05T08:42:37.037Z,55.36
2023-05-05T08:44:13.009Z,54.7
2023-05-05T08:45:53.364Z,55.58
2023-05-05T08:47:33.949Z,54.75
2023-05-05T08:49:14.141Z,55.16
2023-05-05T08:50:54.490Z,55.65
2023-05-05T08:52:34.927Z,52.87
2023-05-05T08:54:15.332Z,55.14
2023-05-05T08:55:55.739Z,54.19
2023-05-05T08:57:36.256Z,53.21
2023-05-05T08:59:16.631Z,55.64
2023-05-05T09:00:57.186Z,53.16
2023-05-05T09:02:37.532Z,53.72
2023-05-05T09:04:17.952Z,54.18
2023-05-05T09:05:58.325Z,54.91
2023-05-05T09:07:38.813Z,54.25
2023-05-05T09:09:19.255Z,55.84
2023-05-05T09:10:59.660Z,53.42
2023-05-05T09:12:40.085Z,54.9
2023-05-05T09:14:20.528Z,52.77
2023-05-05T09:16:00.856Z,51.84
2023-05-05T09:17:41.286Z,53.24
2023-05-05T09:19:21.642Z,54.5
2023-05-05T09:21:02.121Z,55.51
2023-05-05T09:22:42.456Z,51.13
2023-05-05T09:24:22.858Z,49.13
2023-05-05T09:26:03.302Z,51.24
2023-05-05T09:27:43.717Z,50.86
2023-05-05T09:29:24.152Z,52.32
2023-05-05T09:31:04.570Z,52.27
2023-05-05T09:32:45.026Z,51.51
2023-05-05T09:34:25.413Z,50.45
2023-05-05T09:36:05.869Z,49.88
2023-05-05T09:37:46.279Z,48.55
2023-05-05T09:39:26.688Z,47.93
2023-05-05T09:41:07.035Z,48.2
2023-05-05T09:42:47.410Z,49.49
2023-05-05T09:44:27.803Z,44.7
2023-05-05T09:46:08.323Z,47.87
2023-05-05T09:47:48.608Z,49.14
2023-05-05T09:49:28.931Z,49.03
2023-05-05T09:51:09.325Z,48.64
2023-05-05T09:52:49.836Z,50.1
2023-05-05T09:54:30.236Z,49.66
2023-05-05T09:56:10.674Z,48.94
2023-05-05T09:57:51.066Z,49.02
2023-05-05T09:59:31.491Z,48.77
2023-05-05T10:01:11.996Z,48.23
2023-05-05T10:02:52.424Z,47.96
2023-05-05T10:04:32.842Z,47.14
2023-05-05T10:06:13.151Z,46.98
2023-05-05T10:07:53.598Z,47.31
2023-05-05T10:09:34.083Z,46.51
2023-05-05T10:11:14.508Z,47.36
2023-05-05T10:12:54.929Z,47.28
2023-05-05T10:14:35.290Z,48.31
2023-05-05T10:16:15.747Z,45.72
2023-05-05T10:18:06.942Z,47.01
2023-05-05T10:19:36.563Z,45.48
2023-05-05T10:21:16.979Z,44.73
2023-05-05T10:22:57.352Z,45.73
2023-05-05T10:24:37.786Z,43.86
2023-05-05T10:26:18.183Z,44.02
2023-05-05T10:27:58.529Z,44.37
2023-05-05T10:29:39.003Z,42.91
2023-05-05T10:31:25.625Z,44.03
2023-05-05T10:33:13.554Z,44.57
2023-05-05T10:34:40.227Z,45.6
2023-05-05T10:36:20.518Z,45.91
2023-05-05T10:38:00.882Z,44.23
2023-05-05T10:39:41.256Z,45.63
2023-05-05T10:41:21.667Z,42.09
2023-05-05T10:43:02.158Z,42.01
2023-05-05T10:44:42.519Z,41.83
2023-05-05T10:46:22.953Z,42.38
2023-05-05T10:48:03.463Z,43.67
2023-05-05T10:49:43.713Z,40.63
2023-05-05T10:51:38.493Z,42.12
2023-05-05T10:53:04.768Z,42.73
2023-05-05T10:54:45.194Z,39.37
2023-05-05T10:56:25.653Z,40.88
2023-05-05T10:58:06.023Z,39.83
2023-05-05T10:59:46.425Z,42.77
2023-05-05T11:01:26.734Z,43.69
2023-05-05T11:03:07.308Z,41.55
2023-05-05T11:04:47.672Z,40.78
2023-05-05T11:06:28.127Z,45.15
2023-05-05T11:08:08.543Z,43.32
2023-05-05T11:09:48.964Z,41.38
2023-05-05T11:11:29.394Z,40.67
2023-05-05T11:13:09.799Z,41.37
2023-05-05T11:14:50.197Z,40.98
2023-05-05T11:16:30.650Z,42
2023-05-05T11:18:11.115Z,41.57
2023-05-05T11:19:51.480Z,40.69
2023-05-05T11:21:31.912Z,41.12
2023-05-05T11:23:14.524Z,41.6
2023-05-05T11:24:52.790Z,40.96
2023-05-05T11:26:33.152Z,42.08
2023-05-05T11:28:13.576Z,43.76
2023-05-05T11:29:53.987Z,43.39
2023-05-05T11:31:34.487Z,41.93
2023-05-05T11:33:15.015Z,44.51
2023-05-05T11:34:55.343Z,45.11
2023-05-05T11:36:35.857Z,45.03
2023-05-05T11:38:16.275Z,44.88
2023-05-05T11:39:56.741Z,46.29
2023-05-05T11:41:37.119Z,44.27
2023-05-05T11:43:17.533Z,45.46
2023-05-05T11:44:57.845Z,45.13
2023-05-05T11:46:38.389Z,46.45
2023-05-05T11:48:18.656Z,48.69
2023-05-05T11:49:59.038Z,47.77
2023-05-05T11:51:39.480Z,48.27
2023-05-05T11:53:19.826Z,47.81
2023-05-05T11:55:00.267Z,48.3
2023-05-05T11:56:40.642Z,49.49
2023-05-05T11:58:21.029Z,51.3
2023-05-05T12:00:01.469Z,50.31
2023-05-05T12:01:41.828Z,50.28
2023-05-05T12:03:22.389Z,50.53
2023-05-05T12:05:02.649Z,51.04
2023-05-05T12:06:42.974Z,52.35
2023-05-05T12:08:23.392Z,52.87
2023-05-05T12:10:03.794Z,53.13
2023-05-05T12:11:44.171Z,52.07
2023-05-05T12:13:24.620Z,53.86
2023-05-05T12:15:04.984Z,53.28
2023-05-05T12:16:45.348Z,53.29
2023-05-05T12:18:25.740Z,53.63
2023-05-05T12:20:06.291Z,53.67
2023-05-05T12:21:46.404Z,53.32
2023-05-05T12:23:26.709Z,52
2023-05-05T12:25:07.077Z,53.01
2023-05-05T12:26:47.605Z,52.79
2023-05-05T12:28:28.071Z,51.75
2023-05-05T12:30:08.668Z,54.73
2023-05-05T12:31:48.916Z,51.65
2023-05-05T12:33:29.282Z,51.05
2023-05-05T12:35:09.706Z,51.04
2023-05-05T12:36:50.094Z,51.48
2023-05-05T12:38:30.506Z,52.32
2023-05-05T12:40:11.051Z,49.91
2023-05-05T12:41:51.330Z,50.39
2023-05-05T12:43:31.762Z,51.57
2023-05-05T12:45:12.132Z,52.47
2023-05-05T12:46:52.534Z,52.18
2023-05-05T12:48:32.894Z,52.92
2023-05-05T12:50:13.318Z,54.02
2023-05-05T12:51:53.728Z,54.06
2023-05-05T12:53:34.175Z,53.3
2023-05-05T12:55:14.546Z,54.77
2023-05-05T12:56:54.965Z,56.32
2023-05-05T12:58:35.334Z,59.8
2023-05-05T13:00:15.798Z,58.17
2023-05-05T13:01:56.262Z,59.68
2023-05-05T13:03:36.699Z,61.53
2023-05-05T13:05:17.050Z,61.64
2023-05-05T13:06:57.399Z,63.81
2023-05-05T13:08:37.790Z,65.21
2023-05-05T13:10:18.292Z,65.64
2023-05-05T13:11:58.689Z,64.58
2023-05-05T13:13:39.135Z,65.43
2023-05-05T13:15:19.430Z,64.39
2023-05-05T13:16:59.781Z,65.1
2023-05-05T13:18:40.198Z,65.29
2023-05-05T13:20:20.555Z,65.76
2023-05-05T13:22:01.033Z,62.99
2023-05-05T13:23:41.448Z,63.44
2023-05-05T13:25:21.915Z,61.01
2023-05-05T13:27:02.320Z,60.7
2023-05-05T13:28:42.713Z,61.38
2023-05-05T13:30:23.124Z,61.18
2023-05-05T13:32:03.512Z,60.21
2023-05-05T13:33:43.898Z,61.16
2023-05-05T13:35:24.390Z,60.04
2023-05-05T13:37:04.782Z,60.07
2023-05-05T13:38:45.096Z,60.87
2023-05-05T13:40:26.040Z,61.37
2023-05-05T13:42:06.031Z,60.46
2023-05-05T13:43:46.463Z,60.04
2023-05-05T13:45:26.810Z,59.42
2023-05-05T13:47:07.352Z,60.15
2023-05-05T13:48:47.637Z,60.73
2023-05-05T13:50:28.072Z,60.09
2023-05-05T13:52:08.550Z,61.85
2023-05-05T13:53:48.944Z,62.24
2023-05-05T13:55:29.307Z,61.52
2023-05-05T13:57:09.771Z,60.45
2023-05-05T13:58:50.186Z,60.97
2023-05-05T14:00:30.579Z,62.27
2023-05-05T14:02:11.003Z,61.39
2023-05-05T14:03:51.470Z,61.96
2023-05-05T14:05:31.874Z,61.68
2023-05-05T14:07:12.223Z,61.39
2023-05-05T14:08:52.604Z,62.6
2023-05-05T14:10:33.050Z,62.65
2023-05-05T14:12:13.436Z,62.66
2023-05-05T14:13:53.802Z,62.19
2023-05-05T14:15:34.293Z,62.95
2023-05-05T14:17:14.599Z,63.45
2023-05-05T14:18:55.055Z,64.76
2023-05-05T14:20:35.472Z,65.58
2023-05-05T14:22:15.883Z,67.41
2023-05-05T14:23:56.346Z,68.56
2023-05-05T14:25:36.795Z,69.25
2023-05-05T14:27:17.132Z,70.39
2023-05-05T14:28:57.613Z,71.51
2023-05-05T14:30:38.114Z,71.71
2023-05-05T14:32:18.629Z,73.24
2023-05-05T14:33:59.015Z,73.97
2023-05-05T14:35:39.474Z,74.05
2023-05-05T14:37:19.820Z,74.65
2023-05-05T14:39:00.262Z,73.99
2023-05-05T14:40:40.639Z,75.1
2023-05-05T14:42:21.078Z,76.56
2023-05-05T14:44:01.510Z,77.72
2023-05-05T14:45:42.053Z,78.26
2023-05-05T14:47:22.533Z,78.42
2023-05-05T14:49:02.882Z,76.39
2023-05-05T14:50:43.280Z,77.05
2023-05-05T14:52:23.651Z,78.92
2023-05-05T14:54:07.414Z,79.97
2023-05-05T14:55:44.274Z,79.79
2023-05-05T14:57:24.648Z,79.73
2023-05-05T14:59:04.971Z,80.69
2023-05-05T15:00:45.396Z,81.82
2023-05-05T15:02:25.812Z,84.18
2023-05-05T15:04:06.342Z,85.47
2023-05-05T15:05:46.683Z,85.02
2023-05-05T15:07:27.051Z,83.93
2023-05-05T15:09:07.484Z,84.46
2023-05-05T15:10:47.894Z,85.32
2023-05-05T15:12:28.314Z,85.68
2023-05-05T15:14:08.756Z,86.44
2023-05-05T15:15:49.193Z,86.89
2023-05-05T15:17:29.624Z,87.23
2023-05-05T15:19:09.980Z,87.54
2023-05-05T15:20:50.421Z,88.43
2023-05-05T15:22:30.858Z,88.92
2023-05-05T15:24:11.315Z,89.19
2023-05-05T15:25:51.726Z,89.74
2023-05-05T15:27:32.107Z,90.15
2023-05-05T15:29:12.501Z,90.06
2023-05-05T15:30:52.907Z,90.1
2023-05-05T15:32:33.428Z,90.18
2023-05-05T15:34:13.713Z,89.47
2023-05-05T15:35:54.079Z,89.65
2023-05-05T15:37:34.451Z,90.45
2023-05-05T15:39:14.844Z,91.03
2023-05-05T15:40:55.229Z,91.24
2023-05-05T15:42:35.652Z,90.67
2023-05-05T15:44:16.082Z,90.17
2023-05-05T15:45:56.429Z,90.53
2023-05-05T15:47:36.915Z,90.29
2023-05-05T15:49:17.217Z,90.6
2023-05-05T15:50:57.628Z,90.16
2023-05-05T15:52:37.972Z,90.68
2023-05-05T15:54:18.450Z,90.84
2023-05-05T15:55:58.788Z,90.43
2023-05-05T15:57:39.321Z,90.36
2023-05-05T15:59:19.765Z,90.55
2023-05-05T16:01:00.176Z,90.43
2023-05-05T16:02:40.705Z,89.99
2023-05-05T16:04:21.033Z,90.51
2023-05-05T16:06:01.541Z,90.28
2023-05-05T16:07:41.928Z,90.04
2023-05-05T16:09:22.337Z,89.49
2023-05-05T16:11:02.780Z,90.29
2023-05-05T16:12:43.274Z,89.29
2023-05-05T16:14:23.673Z,89.23
2023-05-05T16:16:04.079Z,89.38
2023-05-05T16:17:44.539Z,88.55
2023-05-05T16:19:24.926Z,88.23
2023-05-05T16:21:05.366Z,89.11
2023-05-05T16:22:45.918Z,89.39
2023-05-05T16:24:26.216Z,89.65
2023-05-05T16:26:06.636Z,89.4
2023-05-05T16:27:47.063Z,89.78
2023-05-05T16:29:27.373Z,89.84
2023-05-05T16:31:07.661Z,89.04
2023-05-05T16:32:48.148Z,88.92
2023-05-05T16:34:28.469Z,89.26
2023-05-05T16:36:08.856Z,88.98
2023-05-05T16:37:49.281Z,89.02
2023-05-05T16:39:29.663Z,89.09
2023-05-05T16:41:10.126Z,88.77
2023-05-05T16:42:50.530Z,88.8
2023-05-05T16:44:30.933Z,88.43
2023-05-05T16:46:11.386Z,88.69
2023-05-05T16:47:51.868Z,89.28
2023-05-05T16:49:32.181Z,89.19
2023-05-05T16:51:12.646Z,88.51
2023-05-05T16:52:53.085Z,88.95
2023-05-05T16:54:33.499Z,89.13
2023-05-05T16:56:13.874Z,89.39
2023-05-05T16:57:54.250Z,88.89
2023-05-05T16:59:34.706Z,89.28
2023-05-05T17:01:15.208Z,89.3
2023-05-05T17:02:55.633Z,89.29
2023-05-05T17:04:35.964Z,89.41
2023-05-05T17:06:16.240Z,90.28
2023-05-05T17:07:56.622Z,90.69
2023-05-05T17:09:37.056Z,90.82
2023-05-05T17:11:17.435Z,91.18
2023-05-05T17:12:57.866Z,91.41
2023-05-05T17:14:38.234Z,91.54
2023-05-05T17:16:18.751Z,91.54
2023-05-05T17:17:59.162Z,91.8
2023-05-05T17:19:42.614Z,91.72
2023-05-05T17:21:19.980Z,92.04
2023-05-05T17:23:00.411Z,92.02
2023-05-05T17:24:40.856Z,91.96
2023-05-05T17:26:21.156Z,92.12
2023-05-05T17:28:01.508Z,92.27
2023-05-05T17:29:41.849Z,92.33
2023-05-05T17:31:22.291Z,92.42
2023-05-05T17:33:02.660Z,92.28
2023-05-05T17:34:43.047Z,92.14
2023-05-05T17:36:23.461Z,91.78
2023-05-05T17:38:03.847Z,91.81
2023-05-05T17:39:44.308Z,91.74
2023-05-05T17:41:24.712Z,91.44
2023-05-05T17:43:05.229Z,91.68
2023-05-05T17:44:47.526Z,91.68
2023-05-05T17:46:26.139Z,91.35
2023-05-05T17:48:06.438Z,90.83
2023-05-05T17:49:46.805Z,90.66
2023-05-05T17:51:27.193Z,90.23
2023-05-05T17:53:07.562Z,90.35
2023-05-05T17:54:47.961Z,90.07
2023-05-05T17:56:28.398Z,90.34
2023-05-05T17:58:08.855Z,90.47
2023-05-05T17:59:49.236Z,89.9
2023-05-05T18:01:29.776Z,89.65
2023-05-05T18:03:10.345Z,89.35
2023-05-05T18:04:50.631Z,89.76
2023-05-05T18:06:31.089Z,89.64
2023-05-05T18:08:11.610Z,89.82
2023-05-05T18:09:52.018Z,89.94
2023-05-05T18:11:32.423Z,89.68
2023-05-05T18:13:12.840Z,90.06
2023-05-05T18:14:53.227Z,90.29
2023-05-05T18:16:33.661Z,90.32
2023-05-05T18:18:14.109Z,90.24
2023-05-05T18:19:54.556Z,90.3
2023-05-05T18:21:35.006Z,90.32
2023-05-05T18:23:15.546Z,90.45
2023-05-05T18:24:55.985Z,90.71
2023-05-05T18:26:36.408Z,90.97
2023-05-05T18:28:16.856Z,91.24
2023-05-05T18:29:57.291Z,91.33
2023-05-05T18:31:37.744Z,91.92
2023-05-05T18:33:18.102Z,92.05
2023-05-05T18:34:58.648Z,91.71
2023-05-05T18:36:39.017Z,91.7
2023-05-05T18:38:19.555Z,91.68
2023-05-05T18:39:59.932Z,91.79
2023-05-05T18:41:40.448Z,92.02
2023-05-05T18:43:20.943Z,92.13
2023-05-05T18:45:01.325Z,92.34
2023-05-05T18:46:41.678Z,92.29
2023-05-05T18:48:22.041Z,92.12
2023-05-05T18:50:02.534Z,91.93
2023-05-05T18:51:42.962Z,91.87
2023-05-05T18:53:23.376Z,92.01
2023-05-05T18:55:03.792Z,92.29
2023-05-05T18:56:44.203Z,92.15
2023-05-05T18:58:24.722Z,92.26
2023-05-05T19:00:05.159Z,92.14
2023-05-05T19:01:45.674Z,92.31
2023-05-05T19:03:26.067Z,92.67
2023-05-05T19:05:06.461Z,92.57
2023-05-05T19:06:46.857Z,92.31
2023-05-05T19:08:27.324Z,92.44
2023-05-05T19:10:07.651Z,92.26
2023-05-05T19:11:48.070Z,92.52
2023-05-05T19:13:28.436Z,92.24
2023-05-05T19:15:09.146Z,92.03
2023-05-05T19:16:49.390Z,92.18
2023-05-05T19:18:29.712Z,92.13
2023-05-05T19:20:10.107Z,92.13
2023-05-05T19:21:50.512Z,92.13
2023-05-05T19:23:30.960Z,92.04
2023-05-05T19:25:11.715Z,92.16
2023-05-05T19:26:51.843Z,92.14
2023-05-05T19:28:32.187Z,92.35
2023-05-05T19:30:12.615Z,92.15
2023-05-05T19:31:52.961Z,92.2
2023-05-05T19:33:33.391Z,92.59
2023-05-05T19:35:13.807Z,92.81
2023-05-05T19:36:54.200Z,93.03
2023-05-05T19:38:34.536Z,93.1
2023-05-05T19:40:14.915Z,93.29
2023-05-05T19:41:55.256Z,93.54
2023-05-05T19:43:35.595Z,93.41
2023-05-05T19:45:16.017Z,93.35
2023-05-05T19:46:56.418Z,93.27
2023-05-05T19:48:36.859Z,93.48
2023-05-05T19:50:17.256Z,93.69
2023-05-05T19:51:57.708Z,93.41
2023-05-05T19:53:38.106Z,93.1
2023-05-05T19:55:18.593Z,92.47
2023-05-05T19:56:58.997Z,92.51
2023-05-05T19:58:39.431Z,92.37
2023-05-05T20:00:19.882Z,92.49
2023-05-05T20:02:00.426Z,92.72
2023-05-05T20:03:40.740Z,92.6
2023-05-05T20:05:20.944Z,92.22
2023-05-05T20:07:01.335Z,92.64
2023-05-05T20:08:41.743Z,92.86
2023-05-05T20:10:22.185Z,93.07
2023-05-05T20:12:02.546Z,93.28
2023-05-05T20:13:42.859Z,93.45
2023-05-05T20:15:23.175Z,93.55
2023-05-05T20:17:03.535Z,93.62
2023-05-05T20:18:43.938Z,93.62
2023-05-05T20:20:24.357Z,93.79
2023-05-05T20:22:04.782Z,94.04
2023-05-05T20:23:45.262Z,94.12
2023-05-05T20:25:25.695Z,94.17
2023-05-05T20:27:06.092Z,94.36
2023-05-05T20:28:46.532Z,94.55
2023-05-05T20:30:26.957Z,94.72
2023-05-05T20:32:07.353Z,94.72
2023-05-05T20:33:47.700Z,94.75
2023-05-05T20:35:28.029Z,94.9
2023-05-05T20:37:08.633Z,94.92
2023-05-05T20:38:48.957Z,94.93
2023-05-05T20:40:29.436Z,95.01
2023-05-05T20:42:09.815Z,95.23
2023-05-05T20:43:50.224Z,95.47
2023-05-05T20:45:30.667Z,95.46
2023-05-05T20:47:11.189Z,95.53
2023-05-05T20:48:51.506Z,95.68
2023-05-05T20:50:31.799Z,95.84
2023-05-05T20:52:12.224Z,95.97
2023-05-05T20:53:52.485Z,96.05
2023-05-05T20:55:32.817Z,95.98
2023-05-05T20:57:13.144Z,96.11
2023-05-05T20:58:53.521Z,96.21
2023-05-05T21:00:34.032Z,96.51
2023-05-05T21:02:14.304Z,96.72
2023-05-05T21:03:54.589Z,96.78
2023-05-05T21:05:35.036Z,96.83
2023-05-05T21:07:15.441Z,96.71
2023-05-05T21:08:55.856Z,96.66
2023-05-05T21:10:36.315Z,96.7
2023-05-05T21:12:16.597Z,96.7
2023-05-05T21:13:57.026Z,96.83
2023-05-05T21:15:37.476Z,96.79
2023-05-05T21:17:17.973Z,96.81
2023-05-05T21:18:58.379Z,96.8
2023-05-05T21:20:38.766Z,96.89
2023-05-05T21:22:19.140Z,96.98
2023-05-05T21:23:59.546Z,97.04
2023-05-05T21:25:40.045Z,97
2023-05-05T21:27:20.441Z,97.08
2023-05-05T21:29:00.858Z,97.13
2023-05-05T21:30:41.182Z,97.17
2023-05-05T21:32:21.574Z,97.15
2023-05-05T21:34:01.791Z,97.25
2023-05-05T21:35:42.102Z,97.35
2023-05-05T21:37:22.410Z,97.51